Time;durP1;ratioP1;P1;durP2;ratioP2;P2;SDS_P1;SDS_P2;PMS_P1;PMS_P2;Temp;Humidity;BMP_temperature;BMP_pressure;BME280_temperature;BME280_humidity;BME280_pressure;Samples;Min_cycle;Max_cycle;Signal;HPM_P1;HPM_P2
2023/01/03 00:01:38;;;;;;;58.00;3.20;;;;;;;;;;5034951;28;20846;-69
2023/01/03 00:04:06;;;;;;;58.50;3.30;;;;;;;;;;5035194;28;20444;-69
2023/01/03 00:06:34;;;;;;;59.27;3.50;;;;;;;;;;5035389;28;20445;-69
2023/01/03 00:09:01;;;;;;;58.10;3.10;;;;;;;;;;5034345;28;20460;-69
2023/01/03 00:14:15;;;;;;;58.97;3.83;;;;;;;;;;5034988;28;20802;-69
2023/01/03 00:16:44;;;;;;;58.30;3.13;;;;;;;;;;5034924;28;20456;-69
2023/01/03 00:19:11;;;;;;;58.43;3.60;;;;;;;;;;5034106;28;20453;-69
2023/01/03 00:21:39;;;;;;;58.60;3.40;;;;;;;;;;5034715;28;20480;-69
2023/01/03 00:24:07;;;;;;;59.07;3.63;;;;;;;;;;5034754;28;20824;-69
2023/01/03 00:26:34;;;;;;;58.47;3.50;;;;;;;;;;5034753;28;20540;-69
2023/01/03 00:29:02;;;;;;;59.90;3.40;;;;;;;;;;5034085;28;20449;-69
2023/01/03 00:31:29;;;;;;;58.90;3.60;;;;;;;;;;5034676;28;20473;-69
2023/01/03 00:33:57;;;;;;;58.17;3.10;;;;;;;;;;5034524;28;20511;-69
2023/01/03 00:36:24;;;;;;;58.67;3.50;;;;;;;;;;5034523;28;20449;-69
2023/01/03 00:38:51;;;;;;;58.00;3.30;;;;;;;;;;5033687;28;20460;-69
2023/01/03 00:41:19;;;;;;;62.70;3.10;;;;;;;;;;5034314;28;20472;-69
2023/01/03 00:43:47;;;;;;;57.73;3.00;;;;;;;;;;5034287;28;20909;-69
2023/01/03 00:46:15;;;;;;;58.13;3.10;;;;;;;;;;5034352;28;20484;-69
2023/01/03 00:48:42;;;;;;;60.20;3.27;;;;;;;;;;5033403;28;20455;-69
2023/01/03 00:51:12;;;;;;;58.47;3.10;;;;;;;;;;5034123;28;20476;-69
2023/01/03 00:53:40;;;;;;;58.30;2.90;;;;;;;;;;5033948;28;20477;-69
2023/01/03 00:56:08;;;;;;;59.40;3.27;;;;;;;;;;5034331;28;20730;-69
2023/01/03 00:58:36;;;;;;;58.17;3.20;;;;;;;;;;5032988;28;20455;-69
2023/01/03 01:01:05;;;;;;;57.77;3.00;;;;;;;;;;5033983;28;20474;-69
2023/01/03 01:03:32;;;;;;;57.67;2.83;;;;;;;;;;5034041;28;20846;-69
2023/01/03 01:05:59;;;;;;;58.10;3.07;;;;;;;;;;5033924;28;20830;-69
2023/01/03 01:08:28;;;;;;;58.40;3.07;;;;;;;;;;5033991;28;20456;-69
2023/01/03 01:11:04;;;;;;;57.53;2.80;;;;;;;;;;5033395;28;20464;-69
2023/01/03 01:13:32;;;;;;;59.20;3.23;;;;;;;;;;5034010;28;20495;-69
2023/01/03 01:16:01;;;;;;;57.90;3.20;;;;;;;;;;5034160;28;20449;-69
2023/01/03 01:18:28;;;;;;;57.60;3.20;;;;;;;;;;5033547;28;20445;-69
2023/01/03 01:20:55;;;;;;;57.30;3.00;;;;;;;;;;5033059;28;20445;-69
2023/01/03 01:23:22;;;;;;;58.97;3.40;;;;;;;;;;5033780;28;20473;-68
2023/01/03 01:25:51;;;;;;;58.27;3.50;;;;;;;;;;5033891;28;20449;-69
2023/01/03 01:28:18;;;;;;;58.30;3.53;;;;;;;;;;5033537;28;20479;-69
2023/01/03 01:30:45;;;;;;;59.33;3.53;;;;;;;;;;5032740;28;20450;-69
2023/01/03 01:33:12;;;;;;;58.50;3.10;;;;;;;;;;5033183;28;20481;-69
2023/01/03 01:35:39;;;;;;;58.10;3.47;;;;;;;;;;5033614;28;20453;-69
2023/01/03 01:38:06;;;;;;;61.10;3.10;;;;;;;;;;5033476;28;20445;-69
2023/01/03 01:40:33;;;;;;;58.80;3.00;;;;;;;;;;5032628;28;20464;-69
2023/01/03 01:46:13;;;;;;;57.87;2.77;;;;;;;;;;4952890;29;20441;-69
2023/01/03 01:48:41;;;;;;;58.30;3.27;;;;;;;;;;4952040;28;20448;-69
2023/01/03 01:51:09;;;;;;;59.20;3.23;;;;;;;;;;4989643;28;20472;-69
2023/01/03 01:53:37;;;;;;;57.90;3.23;;;;;;;;;;5032927;28;20495;-69
2023/01/03 01:56:05;;;;;;;57.87;3.40;;;;;;;;;;5032849;28;20457;-69
2023/01/03 01:58:36;;;;;;;58.77;3.10;;;;;;;;;;5032372;28;20464;-69
2023/01/03 02:01:05;;;;;;;58.20;3.20;;;;;;;;;;5032971;28;20476;-69
2023/01/03 02:03:32;;;;;;;60.47;5.10;;;;;;;;;;5032999;28;20449;-69
2023/01/03 02:06:01;;;;;;;59.97;4.93;;;;;;;;;;5032676;28;20455;-69
2023/01/03 02:08:28;;;;;;;60.47;5.50;;;;;;;;;;5032232;28;20449;-69
2023/01/03 02:11:09;;;;;;;58.80;4.10;;;;;;;;;;5031534;28;20819;-69
2023/01/03 02:13:45;;;;;;;58.70;3.50;;;;;;;;;;5032736;28;20489;-69
2023/01/03 02:16:20;;;;;;;58.93;3.80;;;;;;;;;;5028683;28;20445;-69
2023/01/03 02:18:52;;;;;;;58.97;4.10;;;;;;;;;;5031775;28;20515;-69
2023/01/03 02:21:32;;;;;;;58.60;3.73;;;;;;;;;;5032631;28;20559;-69
2023/01/03 02:24:26;;;;;;;58.57;3.77;;;;;;;;;;5032420;28;20942;-69
2023/01/03 02:26:58;;;;;;;65.23;4.13;;;;;;;;;;4974882;28;20829;-69
2023/01/03 02:29:44;;;;;;;59.17;4.30;;;;;;;;;;5031527;28;20441;-69
2023/01/03 02:32:14;;;;;;;60.90;5.97;;;;;;;;;;5032407;28;20833;-69
2023/01/03 02:34:45;;;;;;;60.83;4.43;;;;;;;;;;5032360;28;20551;-69
2023/01/03 02:37:16;;;;;;;58.10;3.60;;;;;;;;;;5032235;28;20853;-69
2023/01/03 02:39:47;;;;;;;58.57;3.83;;;;;;;;;;5031602;28;20445;-69
2023/01/03 02:45:07;;;;;;;58.57;3.70;;;;;;;;;;5032192;28;20779;-69
2023/01/03 02:47:38;;;;;;;59.77;3.40;;;;;;;;;;5032514;28;20464;-69
2023/01/03 02:50:06;;;;;;;58.50;3.50;;;;;;;;;;5031489;28;20449;-69
2023/01/03 02:52:33;;;;;;;58.87;3.73;;;;;;;;;;5031981;28;20476;-69
2023/01/03 02:55:03;;;;;;;59.30;3.40;;;;;;;;;;5032102;28;20918;-69
2023/01/03 02:57:32;;;;;;;58.90;3.73;;;;;;;;;;5031866;28;20937;-69
2023/01/03 03:00:01;;;;;;;58.40;3.23;;;;;;;;;;5031038;28;20449;-69
2023/01/03 03:02:32;;;;;;;59.03;3.80;;;;;;;;;;5031684;28;20477;-69
2023/01/03 03:05:04;;;;;;;58.70;3.67;;;;;;;;;;5032088;28;20449;-69
2023/01/03 03:07:34;;;;;;;58.27;3.60;;;;;;;;;;5031902;28;20489;-69
2023/01/03 03:15:36;;;;;;;59.70;4.00;;;;;;;;;;5031773;28;20428;-69
2023/01/03 03:18:06;;;;;;;58.70;4.03;;;;;;;;;;5031693;28;20453;-69
2023/01/03 03:26:09;;;;;;;59.10;3.93;;;;;;;;;;5031855;28;20424;-69
2023/01/03 03:28:36;;;;;;;59.20;4.60;;;;;;;;;;5030878;28;20475;-69
2023/01/03 03:31:06;;;;;;;59.83;4.50;;;;;;;;;;5031464;28;20899;-69
2023/01/03 03:33:36;;;;;;;58.87;4.00;;;;;;;;;;5031344;28;20481;-69
2023/01/03 03:36:06;;;;;;;59.43;4.20;;;;;;;;;;5031704;28;20832;-69
2023/01/03 03:38:34;;;;;;;58.50;3.80;;;;;;;;;;5031306;28;20449;-69
2023/01/03 03:46:52;;;;;;;58.70;3.80;;;;;;;;;;5030373;28;20433;-69
2023/01/03 03:49:39;;;;;;;59.87;3.90;;;;;;;;;;5030778;28;20455;-69
2023/01/03 03:52:10;;;;;;;58.90;4.33;;;;;;;;;;5031344;28;20473;-69
2023/01/03 03:54:38;;;;;;;60.97;4.47;;;;;;;;;;5031150;28;20503;-69
2023/01/03 03:57:09;;;;;;;66.67;4.37;;;;;;;;;;5031390;28;20445;-69
2023/01/03 03:59:38;;;;;;;59.07;4.23;;;;;;;;;;5030691;28;20460;-69
2023/01/03 04:02:06;;;;;;;58.50;4.67;;;;;;;;;;5031244;28;20469;-69
2023/01/03 04:04:35;;;;;;;58.77;3.80;;;;;;;;;;5031281;28;20456;-69
2023/01/03 04:07:02;;;;;;;61.07;4.17;;;;;;;;;;5031092;28;20459;-68
2023/01/03 04:09:30;;;;;;;59.20;3.83;;;;;;;;;;5030620;28;20472;-69
2023/01/03 04:11:57;;;;;;;59.50;4.00;;;;;;;;;;5030943;28;20485;-69
2023/01/03 04:14:24;;;;;;;59.80;4.00;;;;;;;;;;5031156;28;20481;-69
2023/01/03 04:16:51;;;;;;;58.90;3.70;;;;;;;;;;5031062;28;20449;-68
2023/01/03 04:19:19;;;;;;;59.50;4.47;;;;;;;;;;5030204;28;20941;-69
2023/01/03 04:21:46;;;;;;;63.23;4.47;;;;;;;;;;5030961;28;20464;-69
2023/01/03 04:24:13;;;;;;;63.30;4.73;;;;;;;;;;5031193;28;20452;-69
2023/01/03 04:26:41;;;;;;;59.23;4.80;;;;;;;;;;5031076;28;20449;-69
2023/01/03 04:29:08;;;;;;;59.57;4.80;;;;;;;;;;5030210;28;21052;-69
2023/01/03 04:31:35;;;;;;;57.87;3.80;;;;;;;;;;5031028;28;20472;-69
2023/01/03 04:34:02;;;;;;;60.38;4.30;;;;;;;;;;5033919;28;20516;-69
2023/01/03 04:36:30;;;;;;;60.50;4.20;;;;;;;;;;5035036;28;20209;-69
2023/01/03 04:38:57;;;;;;;61.60;4.50;;;;;;;;;;5033861;28;20449;-69
2023/01/03 04:41:24;;;;;;;59.43;3.80;;;;;;;;;;5034376;28;20476;-69
2023/01/03 04:44:00;;;;;;;59.30;3.90;;;;;;;;;;5034520;28;20457;-69
2023/01/03 04:46:27;;;;;;;59.17;4.60;;;;;;;;;;5034299;28;20445;-69
2023/01/03 04:48:55;;;;;;;60.00;5.07;;;;;;;;;;5033815;28;20210;-69
2023/01/03 04:51:22;;;;;;;58.85;4.10;;;;;;;;;;5033928;28;20472;-69
2023/01/03 04:53:49;;;;;;;59.83;4.13;;;;;;;;;;5034251;28;20226;-69
2023/01/03 04:56:16;;;;;;;59.05;4.45;;;;;;;;;;5034166;28;20551;-69
2023/01/03 04:58:43;;;;;;;59.75;4.00;;;;;;;;;;5033403;28;20216;-69
2023/01/03 05:01:12;;;;;;;60.47;4.50;;;;;;;;;;5033876;28;20237;-69
2023/01/03 05:03:39;;;;;;;60.67;4.80;;;;;;;;;;5034195;28;20202;-69
2023/01/03 05:06:07;;;;;;;59.10;4.15;;;;;;;;;;5034305;28;20457;-69
2023/01/03 05:08:34;;;;;;;59.63;4.07;;;;;;;;;;5033323;28;20213;-69
2023/01/03 05:11:01;;;;;;;59.60;4.38;;;;;;;;;;5033717;28;20245;-69
2023/01/03 05:13:29;;;;;;;58.90;4.03;;;;;;;;;;5033608;28;20226;-69
2023/01/03 05:15:56;;;;;;;60.80;5.13;;;;;;;;;;5033979;28;20475;-69
2023/01/03 05:18:24;;;;;;;60.33;4.83;;;;;;;;;;5033794;28;20209;-69
2023/01/03 05:26:22;;;;;;;60.10;4.57;;;;;;;;;;5033677;28;20658;-69
2023/01/03 05:28:51;;;;;;;60.30;4.40;;;;;;;;;;5032956;28;20471;-69
2023/01/03 05:31:18;;;;;;;58.77;4.00;;;;;;;;;;5033852;28;20230;-69
2023/01/03 05:33:47;;;;;;;59.57;4.70;;;;;;;;;;5033673;28;20848;-69
2023/01/03 05:36:14;;;;;;;59.95;4.60;;;;;;;;;;5033510;28;20456;-69
2023/01/03 05:38:41;;;;;;;60.38;4.38;;;;;;;;;;5032677;28;20213;-69
2023/01/03 05:41:08;;;;;;;59.67;4.53;;;;;;;;;;5033378;28;20313;-69
2023/01/03 05:43:36;;;;;;;60.08;5.20;;;;;;;;;;5032692;28;20205;-69
2023/01/03 05:46:03;;;;;;;60.55;4.57;;;;;;;;;;5032768;28;20207;-69
2023/01/03 05:48:30;;;;;;;60.20;4.30;;;;;;;;;;5033064;28;20589;-69
2023/01/03 05:50:58;;;;;;;60.35;4.95;;;;;;;;;;5032978;28;20465;-69
2023/01/03 05:53:25;;;;;;;59.43;4.47;;;;;;;;;;5032945;28;20214;-69
2023/01/03 05:55:53;;;;;;;60.20;4.68;;;;;;;;;;5033356;28;20453;-69
2023/01/03 05:58:20;;;;;;;61.20;4.85;;;;;;;;;;5032954;28;20212;-69
2023/01/03 06:00:47;;;;;;;62.15;4.70;;;;;;;;;;5032328;28;20202;-69
2023/01/03 06:03:14;;;;;;;63.80;4.88;;;;;;;;;;5032981;28;20269;-69
2023/01/03 06:05:41;;;;;;;60.40;4.63;;;;;;;;;;5032690;28;20213;-69
2023/01/03 06:08:10;;;;;;;59.83;4.63;;;;;;;;;;5032888;28;20581;-69
2023/01/03 06:10:39;;;;;;;60.63;4.72;;;;;;;;;;5031888;28;20460;-69
2023/01/03 06:13:06;;;;;;;60.17;4.90;;;;;;;;;;5032865;28;20671;-69
2023/01/03 06:15:33;;;;;;;60.13;4.65;;;;;;;;;;5032584;28;20233;-69
2023/01/03 06:18:01;;;;;;;60.90;5.03;;;;;;;;;;5032493;28;20589;-69
2023/01/03 06:20:28;;;;;;;59.85;4.40;;;;;;;;;;5031811;28;20280;-69
2023/01/03 06:22:55;;;;;;;61.05;5.00;;;;;;;;;;5032347;28;20233;-69
2023/01/03 06:25:24;;;;;;;60.00;5.20;;;;;;;;;;5032710;28;20202;-69
2023/01/03 06:27:51;;;;;;;59.40;4.55;;;;;;;;;;5032550;28;20235;-69
2023/01/03 06:30:19;;;;;;;63.35;4.60;;;;;;;;;;5031525;28;20206;-69
2023/01/03 06:32:46;;;;;;;63.55;5.10;;;;;;;;;;5032179;28;20237;-69
2023/01/03 06:35:13;;;;;;;60.33;5.10;;;;;;;;;;5032421;28;20252;-69
2023/01/03 06:37:41;;;;;;;59.88;4.80;;;;;;;;;;5032305;28;20205;-69
2023/01/03 06:40:08;;;;;;;59.88;4.55;;;;;;;;;;5031513;28;20208;-69
2023/01/03 06:42:41;;;;;;;59.78;5.40;;;;;;;;;;5032113;28;20222;-69
2023/01/03 06:53:24;;;;;;;61.20;4.60;;;;;;;;;;5032515;28;20204;-69
2023/01/03 06:55:51;;;;;;;61.13;4.90;;;;;;;;;;5031715;28;20222;-69
2023/01/03 06:58:20;;;;;;;61.35;5.60;;;;;;;;;;5031996;28;20210;-69
2023/01/03 07:00:47;;;;;;;64.63;7.03;;;;;;;;;;5031013;28;20210;-69
2023/01/03 07:03:14;;;;;;;64.68;6.32;;;;;;;;;;5031921;28;20210;-69
2023/01/03 07:05:41;;;;;;;62.15;6.53;;;;;;;;;;5031880;28;20209;-69
2023/01/03 07:08:08;;;;;;;63.65;6.00;;;;;;;;;;5031362;28;20205;-69
2023/01/03 07:10:35;;;;;;;62.90;6.30;;;;;;;;;;5031000;28;20670;-69
2023/01/03 07:15:49;;;;;;;61.28;6.25;;;;;;;;;;5031752;28;20232;-69
2023/01/03 07:18:16;;;;;;;69.43;7.25;;;;;;;;;;5031692;28;20205;-69
2023/01/03 07:20:43;;;;;;;60.40;5.75;;;;;;;;;;5030837;28;20203;-69
2023/01/03 07:23:10;;;;;;;63.45;6.15;;;;;;;;;;5031807;28;20297;-69
2023/01/03 07:25:40;;;;;;;63.72;5.82;;;;;;;;;;5031726;28;20209;-70
2023/01/03 07:28:07;;;;;;;66.30;6.68;;;;;;;;;;5031655;28;20210;-69
2023/01/03 07:30:37;;;;;;;65.03;5.78;;;;;;;;;;5031115;28;20217;-69
2023/01/03 07:33:05;;;;;;;63.45;5.20;;;;;;;;;;5031508;28;20642;-70
2023/01/03 07:35:33;;;;;;;62.40;6.78;;;;;;;;;;5031705;28;20230;-69
2023/01/03 07:38:00;;;;;;;60.40;5.63;;;;;;;;;;5031546;28;20213;-69
2023/01/03 07:40:27;;;;;;;64.68;6.25;;;;;;;;;;5031041;28;20214;-69
2023/01/03 07:45:40;;;;;;;65.70;5.82;;;;;;;;;;5026005;28;20937;-70
2023/01/03 07:48:08;;;;;;;63.40;6.03;;;;;;;;;;5031054;28;20217;-69
2023/01/03 07:50:36;;;;;;;59.83;4.43;;;;;;;;;;5030547;28;20206;-69
2023/01/03 07:53:03;;;;;;;62.60;6.18;;;;;;;;;;5031152;28;20230;-69
2023/01/03 07:55:30;;;;;;;61.38;5.75;;;;;;;;;;5031378;28;20234;-69
2023/01/03 07:57:57;;;;;;;61.45;5.97;;;;;;;;;;5031526;28;20206;-69
2023/01/03 08:00:24;;;;;;;60.97;5.82;;;;;;;;;;5030290;28;20217;-70
2023/01/03 08:02:53;;;;;;;63.50;5.72;;;;;;;;;;5031379;28;20236;-69
2023/01/03 08:05:22;;;;;;;60.88;5.50;;;;;;;;;;5031319;28;20206;-70
2023/01/03 08:07:49;;;;;;;65.70;6.47;;;;;;;;;;5032784;28;20210;-69
2023/01/03 08:13:19;;;;;;;61.50;5.75;;;;;;;;;;5034950;28;20312;-69
2023/01/03 08:15:48;;;;;;;63.15;5.90;;;;;;;;;;5035137;28;20702;-69
2023/01/03 08:18:15;;;;;;;61.37;6.33;;;;;;;;;;5034850;28;20591;-69
2023/01/03 08:20:44;;;;;;;60.60;5.75;;;;;;;;;;5034094;28;20826;-69
2023/01/03 08:23:11;;;;;;;61.10;6.30;;;;;;;;;;5034613;28;20202;-69
2023/01/03 08:25:38;;;;;;;60.88;5.95;;;;;;;;;;5034966;28;20445;-69
2023/01/03 08:28:06;;;;;;;62.67;7.27;;;;;;;;;;5034557;28;20203;-69
2023/01/03 08:30:33;;;;;;;60.92;6.40;;;;;;;;;;5033841;28;20457;-69
2023/01/03 08:33:02;;;;;;;63.42;6.45;;;;;;;;;;5034590;28;20313;-69
2023/01/03 08:35:30;;;;;;;61.92;6.28;;;;;;;;;;5034395;28;20233;-69
2023/01/03 08:37:59;;;;;;;61.60;6.22;;;;;;;;;;5034631;28;20247;-69
2023/01/03 08:40:27;;;;;;;61.63;6.70;;;;;;;;;;5033654;28;20228;-69
2023/01/03 08:42:54;;;;;;;63.40;6.30;;;;;;;;;;5033621;28;20473;-69
2023/01/03 08:45:21;;;;;;;62.40;6.88;;;;;;;;;;5034521;28;20693;-69
2023/01/03 08:47:48;;;;;;;61.83;6.87;;;;;;;;;;5034381;28;20213;-69
2023/01/03 08:50:16;;;;;;;61.22;6.88;;;;;;;;;;5033382;28;20449;-69
2023/01/03 08:52:43;;;;;;;63.90;7.07;;;;;;;;;;5034226;28;20233;-69
2023/01/03 08:55:11;;;;;;;61.92;7.00;;;;;;;;;;5034482;28;20234;-69
2023/01/03 08:57:39;;;;;;;64.30;6.78;;;;;;;;;;5034100;28;20229;-69
2023/01/03 09:00:06;;;;;;;62.60;7.03;;;;;;;;;;5033426;28;20253;-69
2023/01/03 09:02:34;;;;;;;69.93;7.32;;;;;;;;;;5034085;28;20710;-69
2023/01/03 09:05:02;;;;;;;61.80;6.80;;;;;;;;;;5034257;28;20210;-69
2023/01/03 09:07:29;;;;;;;67.40;7.07;;;;;;;;;;5034392;28;20445;-69
2023/01/03 09:09:56;;;;;;;60.75;6.40;;;;;;;;;;5033420;28;20457;-69
2023/01/03 09:12:24;;;;;;;66.63;8.40;;;;;;;;;;5033775;28;20238;-69
2023/01/03 09:14:51;;;;;;;62.67;7.23;;;;;;;;;;5034125;28;20222;-69
2023/01/03 09:17:18;;;;;;;61.57;6.40;;;;;;;;;;5033665;28;20464;-69
2023/01/03 09:19:46;;;;;;;60.88;6.28;;;;;;;;;;5032944;28;20559;-69
2023/01/03 09:22:13;;;;;;;62.27;6.80;;;;;;;;;;5033857;28;20632;-69
2023/01/03 09:24:40;;;;;;;65.17;7.67;;;;;;;;;;5033794;28;20448;-69
2023/01/03 09:27:07;;;;;;;61.70;6.50;;;;;;;;;;5033658;28;20449;-69
2023/01/03 09:29:35;;;;;;;62.50;6.70;;;;;;;;;;5032787;28;20953;-69
2023/01/03 09:32:02;;;;;;;63.00;7.47;;;;;;;;;;5033375;28;20473;-69
2023/01/03 09:34:30;;;;;;;63.27;7.60;;;;;;;;;;5033568;28;20527;-69
2023/01/03 09:36:57;;;;;;;62.13;6.67;;;;;;;;;;5033745;28;20768;-69
2023/01/03 09:39:24;;;;;;;62.27;7.03;;;;;;;;;;5032635;28;20984;-69
2023/01/03 09:44:32;;;;;;;63.50;7.00;;;;;;;;;;5032211;28;20507;-69
2023/01/03 09:47:00;;;;;;;62.47;6.40;;;;;;;;;;5033425;28;20456;-69
2023/01/03 09:49:27;;;;;;;61.90;5.83;;;;;;;;;;5032530;28;20453;-69
2023/01/03 10:06:02;;;;;;;62.87;6.03;;;;;;;;;;5033163;28;20425;-69
2023/01/03 10:08:34;;;;;;;61.20;5.90;;;;;;;;;;5032745;28;20463;-69
2023/01/03 10:11:05;;;;;;;60.30;5.40;;;;;;;;;;5032785;28;20499;-69
2023/01/03 10:13:38;;;;;;;61.00;5.40;;;;;;;;;;5032940;28;20449;-69
2023/01/03 10:16:08;;;;;;;62.90;5.40;;;;;;;;;;5032779;28;20497;-69
2023/01/03 10:18:46;;;;;;;60.80;5.83;;;;;;;;;;5031995;28;20456;-69
2023/01/03 10:21:18;;;;;;;62.83;6.27;;;;;;;;;;5032800;28;20481;-69
2023/01/03 10:23:46;;;;;;;61.30;5.70;;;;;;;;;;5033049;28;20445;-69
2023/01/03 10:26:13;;;;;;;64.03;6.37;;;;;;;;;;5032451;28;20452;-69
2023/01/03 10:28:41;;;;;;;61.27;6.10;;;;;;;;;;5031674;28;20461;-69
2023/01/03 10:31:15;;;;;;;60.50;5.30;;;;;;;;;;5031890;28;20476;-69
2023/01/03 10:33:44;;;;;;;59.40;5.07;;;;;;;;;;5032420;28;20449;-69
2023/01/03 10:36:12;;;;;;;59.67;5.63;;;;;;;;;;5032383;28;20480;-69
2023/01/03 10:38:39;;;;;;;62.13;6.73;;;;;;;;;;5031930;28;20445;-69
2023/01/03 10:41:16;;;;;;;61.00;5.90;;;;;;;;;;5032340;28;20461;-69
2023/01/03 10:43:43;;;;;;;60.60;5.10;;;;;;;;;;5032282;28;20456;-69
2023/01/03 10:46:15;;;;;;;59.87;5.87;;;;;;;;;;5032344;28;20533;-69
2023/01/03 10:48:44;;;;;;;61.87;5.63;;;;;;;;;;5031390;28;20461;-69
2023/01/03 10:51:23;;;;;;;61.37;5.63;;;;;;;;;;5031902;28;20475;-69
2023/01/03 10:53:51;;;;;;;60.20;5.57;;;;;;;;;;5032437;28;20489;-69
2023/01/03 10:56:19;;;;;;;61.70;5.23;;;;;;;;;;5031944;28;20489;-69
2023/01/03 10:58:46;;;;;;;59.17;4.80;;;;;;;;;;5031388;28;20840;-69
2023/01/03 11:01:20;;;;;;;59.40;4.73;;;;;;;;;;5032576;28;20475;-70
2023/01/03 11:04:06;;;;;;;65.10;5.23;;;;;;;;;;5031820;28;20455;-70
2023/01/03 11:06:33;;;;;;;60.90;5.50;;;;;;;;;;5032062;28;20449;-69
2023/01/03 11:09:02;;;;;;;60.30;4.93;;;;;;;;;;5031261;28;20451;-70
2023/01/03 11:11:31;;;;;;;60.00;5.30;;;;;;;;;;5031735;28;20481;-70
2023/01/03 11:14:05;;;;;;;60.50;5.03;;;;;;;;;;5031651;28;20453;-70
2023/01/03 11:16:33;;;;;;;58.83;4.40;;;;;;;;;;5031719;28;20485;-70
2023/01/03 11:19:02;;;;;;;59.43;5.00;;;;;;;;;;5031334;28;20819;-69
2023/01/03 11:21:33;;;;;;;59.27;4.57;;;;;;;;;;5031820;28;20469;-70
2023/01/03 11:24:07;;;;;;;60.07;4.73;;;;;;;;;;5032163;28;20453;-70
2023/01/03 11:26:41;;;;;;;60.20;5.17;;;;;;;;;;5031604;28;20454;-70
2023/01/03 11:29:26;;;;;;;60.00;4.40;;;;;;;;;;5031127;28;20854;-70
2023/01/03 11:31:55;;;;;;;59.87;4.40;;;;;;;;;;5001439;28;20465;-70
2023/01/03 11:34:40;;;;;;;59.77;4.07;;;;;;;;;;5031558;28;20449;-69
2023/01/03 11:37:12;;;;;;;59.17;4.00;;;;;;;;;;5031647;28;20485;-70
2023/01/03 11:39:50;;;;;;;59.03;4.00;;;;;;;;;;5030749;28;20455;-69
2023/01/03 11:42:38;;;;;;;59.07;3.67;;;;;;;;;;5033885;28;20852;-67
2023/01/03 11:45:22;;;;;;;59.57;4.30;;;;;;;;;;5030620;28;20463;-67
2023/01/03 11:47:51;;;;;;;58.33;3.80;;;;;;;;;;5035637;28;20459;-68
2023/01/03 11:50:26;;;;;;;58.80;4.00;;;;;;;;;;5034677;28;20950;-68
2023/01/03 11:52:57;;;;;;;60.17;3.87;;;;;;;;;;5031365;28;20464;-70
2023/01/03 11:55:44;;;;;;;59.17;3.90;;;;;;;;;;5035259;28;20489;-70
2023/01/03 11:58:22;;;;;;;60.17;3.87;;;;;;;;;;5035483;28;20519;-70
2023/01/03 12:00:54;;;;;;;59.23;3.93;;;;;;;;;;5034441;28;20836;-69
2023/01/03 12:03:28;;;;;;;60.47;4.40;;;;;;;;;;5035118;28;20453;-70
2023/01/03 12:06:00;;;;;;;59.80;4.23;;;;;;;;;;5035061;28;20934;-67
2023/01/03 12:08:36;;;;;;;58.93;4.20;;;;;;;;;;5034721;28;20976;-68
2023/01/03 12:11:06;;;;;;;60.90;5.00;;;;;;;;;;5034879;28;20510;-68
2023/01/03 12:13:36;;;;;;;60.30;4.57;;;;;;;;;;5035069;28;20449;-68
2023/01/03 12:16:05;;;;;;;59.87;3.97;;;;;;;;;;5034824;28;20484;-67
2023/01/03 12:18:38;;;;;;;59.47;4.53;;;;;;;;;;5034240;28;20449;-68
2023/01/03 12:21:10;;;;;;;61.47;3.97;;;;;;;;;;5035007;28;20479;-69
2023/01/03 12:23:41;;;;;;;60.20;3.97;;;;;;;;;;5035185;28;20453;-69
2023/01/03 12:26:09;;;;;;;59.57;3.87;;;;;;;;;;5034811;28;20934;-68
2023/01/03 12:28:39;;;;;;;58.70;3.40;;;;;;;;;;5034074;28;20900;-69
2023/01/03 12:31:11;;;;;;;59.23;4.07;;;;;;;;;;5034552;28;20933;-68
2023/01/03 12:33:42;;;;;;;58.50;3.83;;;;;;;;;;5034832;28;20449;-69
2023/01/03 12:36:19;;;;;;;57.60;3.33;;;;;;;;;;5034898;28;20542;-69
2023/01/03 12:38:54;;;;;;;58.80;3.90;;;;;;;;;;5033875;28;20448;-69
2023/01/03 12:41:24;;;;;;;58.60;3.50;;;;;;;;;;5034631;28;20478;-69
2023/01/03 12:43:53;;;;;;;57.63;3.10;;;;;;;;;;5034724;28;20438;-69
2023/01/03 12:46:22;;;;;;;58.60;3.17;;;;;;;;;;5034524;28;20455;-69
2023/01/03 12:48:53;;;;;;;58.20;3.03;;;;;;;;;;5033712;28;20814;-69
2023/01/03 12:51:23;;;;;;;58.57;3.20;;;;;;;;;;5034413;28;20791;-69
2023/01/03 12:53:52;;;;;;;58.40;2.97;;;;;;;;;;5033611;28;20544;-69
2023/01/03 12:56:29;;;;;;;59.47;3.13;;;;;;;;;;5034185;28;20817;-69
2023/01/03 12:59:06;;;;;;;57.87;3.17;;;;;;;;;;5033795;28;20449;-69
2023/01/03 13:01:37;;;;;;;58.60;3.47;;;;;;;;;;5034353;28;20495;-69
2023/01/03 13:04:09;;;;;;;57.57;2.70;;;;;;;;;;5034267;28;20455;-69
2023/01/03 13:06:41;;;;;;;59.73;3.10;;;;;;;;;;5033907;28;20484;-69
2023/01/03 13:09:12;;;;;;;57.27;3.20;;;;;;;;;;5033569;28;20449;-69
2023/01/03 13:11:46;;;;;;;59.23;3.07;;;;;;;;;;5033872;28;20489;-69
2023/01/03 13:14:18;;;;;;;59.00;3.00;;;;;;;;;;5033897;28;20449;-69
2023/01/03 13:16:47;;;;;;;57.53;3.03;;;;;;;;;;5033782;28;20457;-68
2023/01/03 13:19:40;;;;;;;59.00;3.17;;;;;;;;;;5033427;28;20448;-69
2023/01/03 13:22:21;;;;;;;58.47;3.40;;;;;;;;;;5033663;28;20465;-68
2023/01/03 13:24:50;;;;;;;59.27;3.27;;;;;;;;;;5033715;28;20453;-69
2023/01/03 13:27:36;;;;;;;57.77;3.33;;;;;;;;;;5033646;28;20491;-69
2023/01/03 13:30:05;;;;;;;58.70;3.40;;;;;;;;;;5032910;28;20440;-69
2023/01/03 13:32:46;;;;;;;58.77;3.70;;;;;;;;;;5033740;28;20491;-69
2023/01/03 13:35:29;;;;;;;59.97;4.07;;;;;;;;;;5033624;28;20448;-68
2023/01/03 13:37:58;;;;;;;61.50;3.87;;;;;;;;;;5033609;28;20604;-68
2023/01/03 13:40:27;;;;;;;59.13;3.53;;;;;;;;;;5032862;28;20445;-68
2023/01/03 13:43:15;;;;;;;59.17;3.50;;;;;;;;;;5033247;28;20480;-69
2023/01/03 13:45:51;;;;;;;59.27;3.83;;;;;;;;;;5033389;28;20448;-69
2023/01/03 13:48:21;;;;;;;59.07;3.87;;;;;;;;;;5033086;28;20975;-69
2023/01/03 13:51:06;;;;;;;62.40;3.57;;;;;;;;;;5032168;28;20453;-68
2023/01/03 13:53:38;;;;;;;59.67;4.13;;;;;;;;;;5033351;28;20451;-69
2023/01/03 13:56:22;;;;;;;59.73;4.50;;;;;;;;;;5033098;28;20941;-69
2023/01/03 13:58:51;;;;;;;60.57;4.27;;;;;;;;;;5032155;28;20969;-68
2023/01/03 14:01:22;;;;;;;60.30;4.57;;;;;;;;;;5033259;28;20476;-68
2023/01/03 14:04:02;;;;;;;58.97;4.27;;;;;;;;;;5033014;28;20452;-68
2023/01/03 14:06:47;;;;;;;59.80;4.33;;;;;;;;;;5031929;28;20483;-68
2023/01/03 14:09:20;;;;;;;59.67;3.83;;;;;;;;;;5022161;28;20627;-68
2023/01/03 14:11:55;;;;;;;59.20;3.73;;;;;;;;;;5031226;28;20915;-69
2023/01/03 14:14:25;;;;;;;60.40;4.00;;;;;;;;;;5031031;28;20821;-68
2023/01/03 14:16:54;;;;;;;60.50;4.13;;;;;;;;;;5030831;28;20442;-68
2023/01/03 14:19:23;;;;;;;60.20;4.10;;;;;;;;;;5030025;28;20503;-68
2023/01/03 14:21:53;;;;;;;61.93;4.30;;;;;;;;;;5030749;28;20885;-68
2023/01/03 14:24:24;;;;;;;59.67;4.47;;;;;;;;;;5031276;28;20811;-68
2023/01/03 14:27:05;;;;;;;60.00;3.57;;;;;;;;;;5088794;28;20566;-68
2023/01/03 14:29:34;;;;;;;59.00;3.80;;;;;;;;;;5088511;28;20446;-69
2023/01/03 14:32:01;;;;;;;60.60;4.43;;;;;;;;;;5089007;28;20466;-69
2023/01/03 14:34:30;;;;;;;59.90;3.87;;;;;;;;;;5089380;28;20443;-69
2023/01/03 14:37:01;;;;;;;61.57;4.47;;;;;;;;;;5089067;28;20442;-69
2023/01/03 14:39:31;;;;;;;59.30;3.73;;;;;;;;;;5088473;28;20447;-69
2023/01/03 14:41:59;;;;;;;59.00;3.50;;;;;;;;;;5089072;28;20489;-69
2023/01/03 14:44:28;;;;;;;58.40;3.40;;;;;;;;;;5088890;28;20453;-69
2023/01/03 14:46:56;;;;;;;59.47;3.50;;;;;;;;;;5089155;28;20490;-69
2023/01/03 14:49:25;;;;;;;61.30;3.77;;;;;;;;;;5088003;28;20446;-69
2023/01/03 14:51:57;;;;;;;58.70;3.60;;;;;;;;;;5088387;28;21015;-69
2023/01/03 14:54:25;;;;;;;59.80;3.70;;;;;;;;;;5088966;28;20450;-69
2023/01/03 14:56:52;;;;;;;65.20;4.47;;;;;;;;;;5088606;28;20946;-69
2023/01/03 14:59:20;;;;;;;60.27;4.27;;;;;;;;;;5087934;28;20453;-69
2023/01/03 15:01:49;;;;;;;61.17;4.60;;;;;;;;;;5088716;28;20484;-69
2023/01/03 15:04:17;;;;;;;60.57;4.30;;;;;;;;;;5088696;28;20450;-69
2023/01/03 15:06:55;;;;;;;59.90;4.33;;;;;;;;;;5088546;28;20577;-69
2023/01/03 15:09:23;;;;;;;63.50;4.07;;;;;;;;;;5087738;28;20447;-69
2023/01/03 15:11:58;;;;;;;62.20;4.90;;;;;;;;;;5088335;28;20561;-69
2023/01/03 15:14:26;;;;;;;60.10;4.47;;;;;;;;;;5088698;28;20895;-69
2023/01/03 15:17:01;;;;;;;60.00;4.83;;;;;;;;;;5088507;28;20446;-69
2023/01/03 15:19:29;;;;;;;60.00;4.70;;;;;;;;;;5087576;28;20449;-69
2023/01/03 15:22:06;;;;;;;61.47;5.80;;;;;;;;;;5088124;28;20472;-69
2023/01/03 15:24:38;;;;;;;61.70;5.40;;;;;;;;;;5088323;28;20466;-69
2023/01/03 15:27:27;;;;;;;62.83;5.20;;;;;;;;;;5088216;28;20482;-69
2023/01/03 15:29:54;;;;;;;67.87;6.07;;;;;;;;;;5087216;28;20454;-69
2023/01/03 15:32:23;;;;;;;63.20;7.10;;;;;;;;;;5087821;28;20467;-69
2023/01/03 15:34:50;;;;;;;67.00;7.33;;;;;;;;;;5088275;28;20450;-69
2023/01/03 15:37:19;;;;;;;62.50;7.00;;;;;;;;;;5080414;28;20439;-69
2023/01/03 15:39:47;;;;;;;63.20;6.30;;;;;;;;;;5073945;28;20459;-69
2023/01/03 15:45:18;;;;;;;65.33;8.13;;;;;;;;;;5032054;28;20843;-69
2023/01/03 15:47:46;;;;;;;65.00;7.83;;;;;;;;;;5032040;28;20547;-69
2023/01/03 15:50:14;;;;;;;63.80;6.50;;;;;;;;;;5050750;28;20452;-69
2023/01/03 15:52:41;;;;;;;62.00;6.27;;;;;;;;;;5074126;28;20479;-69
2023/01/03 15:55:12;;;;;;;62.90;6.83;;;;;;;;;;5074029;28;20453;-69